Time;durP1;ratioP1;P1;durP2;ratioP2;P2;SDS_P1;SDS_P2;PMS_P1;PMS_P2;Temp;Humidity;BMP_temperature;BMP_pressure;BME280_temperature;BME280_humidity;BME280_pressure;Samples;Min_cycle;Max_cycle;Signal;HPM_P1;HPM_P2
2022/06/22 00:00:21;;;;;;;2.15;0.70;;;;;;;17.81;51.46;99941.13;5035173;28;20105;-79
2022/06/22 00:02:50;;;;;;;3.67;0.82;;;;;;;17.66;51.50;99945.72;5053088;28;20032;-79
2022/06/22 00:05:31;;;;;;;3.17;0.88;;;;;;;17.49;51.98;99938.97;5052904;28;20577;-80
2022/06/22 00:08:00;;;;;;;4.25;1.10;;;;;;;17.46;52.29;99936.97;5052669;28;20024;-78
2022/06/22 00:10:37;;;;;;;4.05;1.00;;;;;;;17.34;52.71;99940.06;5034862;28;20025;-79
2022/06/22 00:13:04;;;;;;;2.08;0.88;;;;;;;17.52;52.99;99934.66;5034812;28;20360;-79
2022/06/22 00:15:38;;;;;;;4.35;1.10;;;;;;;17.56;52.57;99936.25;5052564;28;20471;-79
2022/06/22 00:18:25;;;;;;;2.65;1.08;;;;;;;17.60;52.58;99941.75;5052482;28;20430;-79
2022/06/22 00:20:55;;;;;;;;;;;;;;;17.38;53.07;99955.41;5053030;28;20090;-79
2022/06/22 00:23:45;;;;;;;4.25;0.98;;;;;;;17.19;53.83;99943.88;5052413;28;19916;-79
2022/06/22 00:26:24;;;;;;;4.57;1.45;;;;;;;17.43;53.58;99946.00;5052100;28;20518;-80
2022/06/22 00:29:05;;;;;;;2.95;1.10;;;;;;;17.35;53.86;99952.66;5052589;28;20119;-79
2022/06/22 00:31:42;;;;;;;3.08;0.75;;;;;;;17.32;53.64;99939.66;5052500;28;20027;-79
2022/06/22 00:34:11;;;;;;;2.97;0.90;;;;;;;17.29;53.81;99937.66;5052609;28;20025;-79
2022/06/22 00:36:45;;;;;;;3.00;0.90;;;;;;;17.26;53.72;99928.22;5052431;28;20360;-79
2022/06/22 00:39:13;;;;;;;2.65;0.77;;;;;;;17.07;54.30;99926.50;5034457;28;20064;-79
2022/06/22 00:41:39;;;;;;;2.58;0.98;;;;;;;16.93;54.48;99918.16;5052402;28;20055;-79
2022/06/22 00:44:08;;;;;;;2.88;1.17;;;;;;;16.84;54.88;99918.50;5034448;28;20040;-79
2022/06/22 00:46:40;;;;;;;2.85;1.00;;;;;;;16.78;55.38;99913.72;5034435;28;20624;-79
2022/06/22 00:49:17;;;;;;;3.08;1.30;;;;;;;16.77;55.70;99909.41;5052312;28;20079;-79
2022/06/22 00:51:43;;;;;;;2.95;1.08;;;;;;;16.77;55.36;99912.16;5052273;28;20070;-79
2022/06/22 00:54:18;;;;;;;3.08;0.93;;;;;;;16.73;55.58;99916.84;5052272;28;20032;-79
2022/06/22 00:56:54;;;;;;;4.03;1.48;;;;;;;16.68;55.90;99908.94;5052247;28;20037;-79
2022/06/22 00:59:23;;;;;;;3.78;1.13;;;;;;;16.64;56.55;99913.59;5034486;28;20021;-79
2022/06/22 01:01:57;;;;;;;1.95;0.85;;;;;;;16.73;55.73;99914.09;5052341;28;20033;-79
2022/06/22 01:04:29;;;;;;;3.78;1.23;;;;;;;16.66;56.15;99912.06;5052253;28;20028;-79
2022/06/22 01:07:07;;;;;;;2.55;1.00;;;;;;;16.63;56.43;99909.25;5052134;28;20018;-79
2022/06/22 01:09:44;;;;;;;2.42;0.90;;;;;;;16.71;56.60;99908.97;5034055;28;20031;-79
2022/06/22 01:12:30;;;;;;;2.80;1.00;;;;;;;16.64;56.08;99905.34;5034282;28;20024;-79
2022/06/22 01:15:02;;;;;;;2.53;1.00;;;;;;;16.55;56.54;99903.72;5052263;28;20360;-79
2022/06/22 01:17:33;;;;;;;3.20;0.90;;;;;;;16.67;56.38;99899.13;5051934;28;20052;-79
2022/06/22 01:20:10;;;;;;;2.70;0.93;;;;;;;16.67;56.49;99899.13;5034161;28;20437;-79
2022/06/22 01:22:56;;;;;;;3.10;1.02;;;;;;;16.51;57.02;99896.59;5051816;28;20048;-80
2022/06/22 01:25:34;;;;;;;2.38;0.80;;;;;;;16.64;56.87;99894.38;5034137;28;20036;-79
2022/06/22 01:28:00;;;;;;;2.80;1.08;;;;;;;16.68;56.79;99900.69;5051985;28;20025;-79
2022/06/22 01:30:38;;;;;;;2.88;1.08;;;;;;;16.34;57.71;99911.78;5052046;28;20532;-80
2022/06/22 01:33:12;;;;;;;2.80;0.95;;;;;;;16.18;57.85;99922.19;5051895;28;20037;-80
2022/06/22 01:35:38;;;;;;;2.92;0.90;;;;;;;16.18;58.48;99913.97;5051883;28;20025;-79
2022/06/22 01:38:19;;;;;;;2.47;1.00;;;;;;;16.16;58.20;99911.59;5051799;28;20025;-80
2022/06/22 01:40:50;;;;;;;2.03;0.80;;;;;;;16.11;58.47;99903.66;5051829;28;20082;-80
2022/06/22 01:43:28;;;;;;;2.83;1.00;;;;;;;16.49;57.21;99890.69;5033926;28;20021;-80
2022/06/22 01:46:04;;;;;;;1.98;0.82;;;;;;;16.36;57.49;99883.91;5033877;28;20028;-80
2022/06/22 01:48:49;;;;;;;2.63;1.13;;;;;;;16.02;58.28;99877.69;5051847;28;20464;-80
2022/06/22 01:51:28;;;;;;;3.35;0.85;;;;;;;15.65;59.77;99897.69;5035480;28;20044;-80
2022/06/22 01:54:00;;;;;;;3.33;1.00;;;;;;;15.58;60.09;99900.31;5037440;28;20509;-80
2022/06/22 01:56:39;;;;;;;2.35;1.05;;;;;;;15.74;59.82;99895.44;5055269;28;20079;-80
2022/06/22 01:59:12;;;;;;;1.92;0.93;;;;;;;15.94;58.70;99891.34;5055309;28;20025;-80
2022/06/22 02:02:02;;;;;;;4.45;1.30;;;;;;;15.93;58.77;99892.50;5055366;28;20029;-80
2022/06/22 02:04:40;;;;;;;4.18;0.98;;;;;;;15.85;59.29;99899.09;5055203;28;20049;-80
2022/06/22 02:07:44;;;;;;;2.40;0.93;;;;;;;15.78;59.38;99899.00;5055292;28;20025;-80
2022/06/22 02:10:25;;;;;;;3.78;1.17;;;;;;;15.89;59.71;99902.66;5055186;28;20025;-80
2022/06/22 02:13:28;;;;;;;3.05;1.20;;;;;;;15.81;59.54;99901.03;5055188;28;20475;-80
2022/06/22 02:15:59;;;;;;;4.18;1.20;;;;;;;15.69;59.40;99898.50;5055007;28;20537;-80
2022/06/22 02:18:32;;;;;;;5.25;1.33;;;;;;;15.58;59.85;99898.34;5054920;28;20032;-80
2022/06/22 02:21:02;;;;;;;2.78;0.90;;;;;;;15.66;59.71;99876.53;5037045;28;20032;-80
2022/06/22 02:23:30;;;;;;;4.13;1.60;;;;;;;15.59;59.86;99882.69;5036785;28;20056;-80
2022/06/22 02:26:11;;;;;;;2.60;1.15;;;;;;;15.60;59.81;99889.75;5054888;28;20028;-80
2022/06/22 02:28:36;;;;;;;2.63;0.80;;;;;;;15.59;59.58;99894.47;5054755;28;20464;-79
2022/06/22 02:31:02;;;;;;;3.53;1.80;;;;;;;15.59;59.72;99896.41;5054816;28;20033;-80
2022/06/22 02:33:28;;;;;;;;;;;;;;;15.56;60.01;99900.69;5055082;28;20083;-79
2022/06/22 02:35:56;;;;;;;2.85;1.05;;;;;;;15.56;59.74;99897.94;5036873;28;19909;-81
2022/06/22 02:38:21;;;;;;;5.10;1.20;;;;;;;15.65;59.59;99903.19;5054502;28;20017;-81
2022/06/22 02:46:23;;;;;;;4.95;1.35;;;;;;;15.47;59.98;99886.47;5055177;28;20039;-83
2022/06/22 02:48:54;;;;;;;3.83;1.40;;;;;;;15.48;60.40;99882.56;5037059;28;20025;-83
2022/06/22 02:51:26;;;;;;;2.63;1.08;;;;;;;15.46;60.29;99871.16;5036920;28;20552;-84
2022/06/22 02:53:53;;;;;;;3.80;1.38;;;;;;;15.42;60.34;99866.78;5054688;28;20025;-83
2022/06/22 02:56:34;;;;;;;7.07;1.13;;;;;;;15.53;60.36;99859.47;5054719;28;20021;-82
2022/06/22 02:59:00;;;;;;;2.28;1.00;;;;;;;15.52;60.10;99850.47;5054512;28;20025;-84
2022/06/22 03:01:29;;;;;;;4.18;1.17;;;;;;;15.60;60.04;99859.59;5054249;28;20016;-84
2022/06/22 03:03:59;;;;;;;2.40;0.90;;;;;;;15.56;60.14;99862.25;5035629;28;20037;-84
2022/06/22 03:06:31;;;;;;;3.45;1.40;;;;;;;15.52;60.07;99850.47;5054313;28;20480;-83
2022/06/22 03:09:00;;;;;;;3.42;1.10;;;;;;;15.52;60.22;99855.16;5054074;28;20053;-81
2022/06/22 03:11:26;;;;;;;2.85;1.05;;;;;;;15.48;60.05;99857.88;5054096;28;20039;-82
2022/06/22 03:13:57;;;;;;;4.95;1.60;;;;;;;15.41;60.50;99876.19;5054203;28;20024;-81
2022/06/22 03:16:31;;;;;;;3.33;1.00;;;;;;;15.35;60.65;99878.47;5036013;28;20064;-82
2022/06/22 03:19:00;;;;;;;13.20;1.70;;;;;;;15.42;60.48;99888.72;5035960;28;20029;-82
2022/06/22 03:21:25;;;;;;;2.33;1.00;;;;;;;15.10;61.88;99905.53;5053882;28;20064;-83
2022/06/22 03:24:06;;;;;;;3.55;1.27;;;;;;;14.82;63.33;99911.41;5053768;28;20127;-82
2022/06/22 03:26:38;;;;;;;4.90;1.42;;;;;;;14.64;64.51;99910.31;5053692;28;20044;-82
2022/06/22 03:29:13;;;;;;;5.15;1.35;;;;;;;14.53;64.69;99904.66;5053926;28;20489;-81
2022/06/22 03:31:45;;;;;;;2.63;1.08;;;;;;;14.69;64.26;99908.06;5035961;28;20491;-81
2022/06/22 03:34:40;;;;;;;2.70;1.08;;;;;;;14.86;63.79;99897.75;5053695;28;20031;-81
2022/06/22 03:37:29;;;;;;;3.42;1.30;;;;;;;14.83;63.59;99884.78;5027923;28;20036;-81
2022/06/22 03:40:00;;;;;;;6.78;2.40;;;;;;;14.92;63.25;99871.59;5053841;28;20119;-83
2022/06/22 03:42:31;;;;;;;2.97;1.15;;;;;;;14.88;63.44;99865.28;5053365;28;20040;-82
2022/06/22 03:45:04;;;;;;;3.58;1.40;;;;;;;14.81;63.27;99873.41;5035285;28;20098;-77
2022/06/22 03:47:40;;;;;;;5.28;1.38;;;;;;;14.71;63.22;99867.38;5053116;28;20100;-76
2022/06/22 03:50:09;;;;;;;2.75;1.30;;;;;;;14.66;63.65;99864.97;5053017;28;20458;-76
2022/06/22 03:52:44;;;;;;;2.90;1.13;;;;;;;14.57;64.13;99858.13;5052974;28;20079;-77
2022/06/22 03:55:17;;;;;;;3.30;1.33;;;;;;;14.58;64.09;99859.72;5053021;28;20028;-77
2022/06/22 03:57:47;;;;;;;4.57;1.70;;;;;;;14.62;63.94;99853.16;5052946;28;20027;-77
2022/06/22 04:00:13;;;;;;;3.80;1.83;;;;;;;14.59;63.83;99853.88;5052831;28;20039;-77
2022/06/22 04:02:40;;;;;;;3.13;1.58;;;;;;;14.71;63.69;99855.63;5053021;28;20025;-77
2022/06/22 04:05:10;;;;;;;4.82;1.70;;;;;;;14.68;63.75;99851.69;5052801;28;20025;-77
2022/06/22 04:07:39;;;;;;;3.60;1.58;;;;;;;14.65;63.75;99852.41;5034826;28;20406;-77
2022/06/22 04:10:11;;;;;;;4.40;1.42;;;;;;;14.64;63.96;99853.56;5052859;28;20112;-77
2022/06/22 04:12:45;;;;;;;4.05;1.65;;;;;;;14.65;63.96;99852.41;5052736;28;20032;-77
2022/06/22 04:15:23;;;;;;;4.35;1.30;;;;;;;14.67;64.08;99849.31;5052442;28;20033;-77
2022/06/22 04:17:59;;;;;;;3.05;1.33;;;;;;;14.63;64.00;99852.00;5034754;28;20032;-77
2022/06/22 04:20:50;;;;;;;3.88;1.95;;;;;;;14.68;64.13;99856.38;5052753;28;20031;-77
2022/06/22 04:23:27;;;;;;;4.53;2.13;;;;;;;14.64;64.21;99856.31;5052534;28;20499;-77
2022/06/22 04:25:54;;;;;;;;;;;;;;;14.63;64.30;99862.97;5052940;28;20052;-77
2022/06/22 04:28:20;;;;;;;4.13;1.55;;;;;;;14.72;64.21;99868.16;5034683;28;19934;-77
2022/06/22 04:30:50;;;;;;;4.22;1.35;;;;;;;14.68;64.18;99868.13;5052452;28;20070;-77
2022/06/22 04:33:20;;;;;;;4.25;1.80;;;;;;;14.74;64.48;99874.84;5034549;28;20025;-77
2022/06/22 04:36:10;;;;;;;4.47;1.70;;;;;;;14.90;63.89;99876.66;5052528;28;20036;-77
2022/06/22 04:38:42;;;;;;;4.57;2.30;;;;;;;14.89;63.89;99884.09;5052262;28;20036;-77
2022/06/22 04:41:22;;;;;;;3.13;1.45;;;;;;;15.04;63.86;99880.41;5052321;28;20052;-77
2022/06/22 04:43:49;;;;;;;4.35;1.42;;;;;;;15.06;63.58;99869.06;5052261;28;20025;-77
2022/06/22 04:46:16;;;;;;;;;;;;;;;15.01;63.85;99877.59;5034620;28;20025;-76
2022/06/22 04:48:47;;;;;;;7.40;1.77;;;;;;;15.05;63.80;99873.75;5052035;28;19909;-76
2022/06/22 04:51:32;;;;;;;3.38;1.50;;;;;;;15.09;63.67;99876.53;5052100;28;20116;-76
2022/06/22 04:54:24;;;;;;;5.07;1.77;;;;;;;15.17;63.57;99883.72;5034241;28;20380;-77
2022/06/22 04:56:53;;;;;;;5.43;1.77;;;;;;;15.27;63.05;99879.50;5051872;28;20033;-77
2022/06/22 04:59:20;;;;;;;4.22;1.60;;;;;;;15.33;63.02;99894.50;5051915;28;20040;-77
2022/06/22 05:01:59;;;;;;;4.47;2.10;;;;;;;15.11;63.30;99890.66;5051995;28;20032;-76
2022/06/22 05:04:29;;;;;;;4.88;2.03;;;;;;;15.05;63.69;99903.13;5051742;28;20032;-77
2022/06/22 05:07:34;;;;;;;3.70;1.60;;;;;;;15.02;64.08;99903.88;5051761;28;20021;-76
2022/06/22 05:10:08;;;;;;;3.33;1.50;;;;;;;15.03;63.94;99900.75;4971028;28;20033;-77
2022/06/22 05:12:44;;;;;;;4.80;2.05;;;;;;;15.11;63.73;99909.06;5042328;28;20045;-77
2022/06/22 05:15:18;;;;;;;4.35;1.92;;;;;;;15.27;63.30;99918.72;5051857;28;20017;-77
2022/06/22 05:17:43;;;;;;;5.97;2.20;;;;;;;15.33;63.01;99924.69;5051617;28;20125;-78
2022/06/22 05:20:34;;;;;;;6.78;2.33;;;;;;;15.45;62.30;99921.72;5033715;28;20490;-78
2022/06/22 05:23:01;;;;;;;6.95;1.98;;;;;;;15.51;62.23;99922.19;5051476;28;20511;-78
2022/06/22 05:25:29;;;;;;;4.25;1.92;;;;;;;15.33;61.93;99921.94;5052048;28;20459;-78
2022/06/22 05:28:13;;;;;;;4.70;2.20;;;;;;;15.41;62.14;99931.03;5037675;28;20017;-78
2022/06/22 05:30:48;;;;;;;3.90;1.80;;;;;;;15.67;61.89;99936.53;5055275;28;20020;-78
2022/06/22 05:33:18;;;;;;;5.22;2.00;;;;;;;15.73;61.00;99915.03;5055345;28;20029;-78
2022/06/22 05:35:55;;;;;;;11.18;2.80;;;;;;;15.79;60.78;99925.31;5037150;28;20111;-78
2022/06/22 05:38:22;;;;;;;4.05;1.80;;;;;;;15.65;60.14;99922.38;5055263;28;20061;-78
2022/06/22 05:40:48;;;;;;;3.28;1.85;;;;;;;15.67;60.73;99920.06;5055052;28;20159;-78
2022/06/22 05:43:14;;;;;;;4.88;1.95;;;;;;;15.84;60.31;99921.44;5055255;28;20360;-78
2022/06/22 05:45:45;;;;;;;3.70;1.70;;;;;;;15.97;60.36;99919.22;5037304;28;20043;-78
2022/06/22 05:48:17;;;;;;;6.00;2.22;;;;;;;16.19;60.15;99921.81;5055213;28;20020;-78
2022/06/22 05:50:53;;;;;;;6.70;2.00;;;;;;;16.27;59.22;99930.91;5055173;28;20100;-78
2022/06/22 05:53:29;;;;;;;5.20;1.73;;;;;;;16.28;59.02;99929.75;5037308;28;20076;-78
2022/06/22 05:56:14;;;;;;;5.63;2.33;;;;;;;16.11;59.49;99935.84;5055192;28;20021;-77
2022/06/22 05:58:54;;;;;;;4.72;2.00;;;;;;;16.40;58.47;99936.94;5054994;28;20138;-78
2022/06/22 06:01:37;;;;;;;4.55;1.80;;;;;;;16.58;57.91;99937.88;5055079;28;20086;-78
2022/06/22 06:04:34;;;;;;;4.90;1.90;;;;;;;16.70;57.74;99940.38;5054739;28;20029;-78
2022/06/22 06:07:31;;;;;;;4.30;1.60;;;;;;;16.72;57.37;99942.75;5037170;28;20075;-78
2022/06/22 06:09:57;;;;;;;4.50;2.07;;;;;;;17.27;56.38;99945.50;5036797;28;20035;-78
2022/06/22 06:12:30;;;;;;;;;;;;;;;17.37;55.48;99950.28;5055131;28;20029;-78
2022/06/22 06:14:55;;;;;;;4.00;1.52;;;;;;;17.31;56.18;99946.34;5056188;28;20385;-78
2022/06/22 06:17:46;;;;;;;3.78;1.38;;;;;;;17.32;55.27;99953.41;5036760;28;20033;-78
2022/06/22 06:20:21;;;;;;;5.43;1.65;;;;;;;17.10;56.08;99946.97;5055008;28;20076;-78
2022/06/22 06:22:50;;;;;;;3.65;1.50;;;;;;;17.12;55.94;99950.91;5036565;28;20491;-78
2022/06/22 06:28:15;;;;;;;8.55;2.60;;;;;;;16.94;56.84;99932.69;5054752;28;20118;-78
2022/06/22 06:30:46;;;;;;;3.78;1.60;;;;;;;17.09;56.97;99935.16;5036499;28;20052;-78
2022/06/22 06:33:35;;;;;;;6.63;1.70;;;;;;;17.53;56.03;99930.72;5054434;28;20025;-78
2022/06/22 06:36:16;;;;;;;5.78;2.08;;;;;;;17.82;56.15;99931.66;5036340;28;20529;-78
2022/06/22 06:38:53;;;;;;;4.50;1.77;;;;;;;18.76;53.55;99923.97;5054107;28;20116;-78
2022/06/22 06:41:40;;;;;;;7.15;2.25;;;;;;;19.07;52.68;99927.13;5054139;28;20025;-78
2022/06/22 06:44:18;;;;;;;6.22;2.35;;;;;;;19.73;50.99;99927.34;5054147;28;20067;-78
2022/06/22 06:46:53;;;;;;;7.57;2.22;;;;;;;19.64;51.22;99941.56;5053977;28;20048;-78
2022/06/22 06:49:46;;;;;;;5.38;2.47;;;;;;;20.05;50.32;99941.81;5036279;28;20021;-78
2022/06/22 06:52:37;;;;;;;4.13;2.10;;;;;;;19.82;50.44;99938.78;5045569;28;20037;-77
2022/06/22 06:55:15;;;;;;;4.50;2.22;;;;;;;20.05;50.13;99941.03;5053941;28;20029;-78
2022/06/22 06:57:59;;;;;;;12.55;2.95;;;;;;;20.78;48.14;99929.88;5053742;28;20035;-78
2022/06/22 07:00:26;;;;;;;5.18;2.20;;;;;;;20.35;48.49;99930.19;5035895;28;20127;-78
2022/06/22 07:02:52;;;;;;;5.13;2.05;;;;;;;20.60;48.22;99918.19;5053688;28;20166;-78
2022/06/22 07:05:21;;;;;;;5.20;2.13;;;;;;;20.48;47.65;99918.66;5053648;28;20422;-78
2022/06/22 07:07:55;;;;;;;4.70;1.60;;;;;;;21.10;47.00;99921.28;5035336;28;20025;-78
2022/06/22 07:10:31;;;;;;;5.32;2.00;;;;;;;21.12;46.84;99918.88;5053513;28;20044;-78
2022/06/22 07:13:04;;;;;;;6.72;2.35;;;;;;;21.27;46.42;99909.28;5035639;28;20067;-78
2022/06/22 07:15:36;;;;;;;4.43;1.95;;;;;;;21.67;45.58;99915.16;5053401;28;20040;-78
2022/06/22 07:18:15;;;;;;;4.75;2.10;;;;;;;21.68;45.85;99910.41;5035389;28;20120;-78
2022/06/22 07:20:46;;;;;;;6.55;1.80;;;;;;;21.43;45.92;99907.91;5035497;28;20028;-78
2022/06/22 07:23:34;;;;;;;3.38;1.60;;;;;;;22.17;44.52;99906.19;5053053;28;20132;-78
2022/06/22 07:26:11;;;;;;;4.53;1.80;;;;;;;20.52;47.91;99914.69;5053325;28;20043;-78
2022/06/22 07:28:49;;;;;;;4.55;1.80;;;;;;;20.30;48.74;99908.47;5053244;28;20083;-77
2022/06/22 07:31:35;;;;;;;4.97;1.77;;;;;;;20.79;47.30;99906.53;5053077;28;20025;-78
2022/06/22 07:34:34;;;;;;;4.72;1.75;;;;;;;20.49;48.38;99904.44;5034757;28;20495;-78
2022/06/22 07:37:10;;;;;;;3.88;1.70;;;;;;;20.14;49.32;99906.22;5052345;28;20484;-77
2022/06/22 07:39:57;;;;;;;7.03;2.10;;;;;;;19.94;49.96;99902.38;5035015;28;20476;-78
2022/06/22 07:42:24;;;;;;;4.25;1.98;;;;;;;19.91;50.62;99897.66;5052800;28;20052;-77
2022/06/22 07:44:49;;;;;;;6.50;2.20;;;;;;;20.14;49.65;99903.44;5052906;28;20033;-77
2022/06/22 07:47:29;;;;;;;5.47;1.60;;;;;;;19.81;50.66;99892.97;5053105;28;20096;-77
2022/06/22 07:50:02;;;;;;;6.57;2.92;;;;;;;20.10;49.57;99888.88;5052126;28;20096;-79
2022/06/22 07:52:35;;;;;;;7.38;2.25;;;;;;;20.12;49.60;99889.25;5034525;28;20025;-79
2022/06/22 07:55:21;;;;;;;4.20;2.03;;;;;;;20.45;49.34;99878.78;5034751;28;20024;-78
2022/06/22 07:58:17;;;;;;;4.25;1.90;;;;;;;20.72;48.26;99876.97;5035138;28;20383;-78
2022/06/22 08:00:45;;;;;;;3.85;1.52;;;;;;;20.70;48.42;99878.59;5052746;28;20087;-77
2022/06/22 08:03:25;;;;;;;5.72;2.33;;;;;;;20.52;48.62;99880.72;5034526;28;20124;-78
2022/06/22 08:05:53;;;;;;;4.72;1.83;;;;;;;20.57;48.71;99872.75;5051946;28;20131;-78
2022/06/22 08:08:24;;;;;;;3.90;2.00;;;;;;;20.63;48.92;99887.72;5034289;28;20025;-79
2022/06/22 08:11:28;;;;;;;3.63;1.90;;;;;;;20.45;49.93;99876.00;5052228;28;20017;-78
2022/06/22 08:14:13;;;;;;;3.45;1.70;;;;;;;20.83;48.80;99884.41;5031905;28;20041;-78
2022/06/22 08:16:44;;;;;;;3.17;1.40;;;;;;;21.00;47.60;99888.97;5034027;28;20036;-78
2022/06/22 08:19:10;;;;;;;4.05;1.52;;;;;;;20.72;47.87;99895.56;5052184;28;20029;-78
2022/06/22 08:21:41;;;;;;;3.63;1.60;;;;;;;20.89;47.38;99897.38;5052221;28;20040;-77
2022/06/22 08:24:10;;;;;;;5.32;1.50;;;;;;;20.99;46.82;99898.44;5052100;28;20399;-78
2022/06/22 08:26:36;;;;;;;4.38;1.30;;;;;;;21.00;47.26;99911.13;5034314;28;20024;-77
2022/06/22 08:29:01;;;;;;;3.55;1.52;;;;;;;21.34;46.18;99902.88;5052043;28;20032;-78
2022/06/22 08:31:36;;;;;;;4.45;1.55;;;;;;;21.31;46.50;99909.22;5051988;28;20170;-78
2022/06/22 08:34:07;;;;;;;3.03;1.38;;;;;;;21.02;45.90;99903.97;5052233;28;20032;-78
2022/06/22 08:36:43;;;;;;;3.40;1.45;;;;;;;21.27;46.43;99908.50;5051990;28;20056;-78
2022/06/22 08:39:23;;;;;;;;;;;;;;;21.36;46.62;99902.47;5052636;28;20432;-78
2022/06/22 08:42:15;;;;;;;4.30;1.45;;;;;;;21.39;44.91;99907.19;5051947;28;19908;-78
2022/06/22 08:45:03;;;;;;;13.80;2.95;;;;;;;21.34;45.83;99902.88;5034017;28;20467;-78
2022/06/22 08:47:47;;;;;;;6.00;2.20;;;;;;;21.48;45.73;99908.25;5051977;28;20024;-78
2022/06/22 08:50:42;;;;;;;3.08;1.40;;;;;;;21.65;44.60;99905.66;5051841;28;20025;-78
2022/06/22 08:53:18;;;;;;;2.97;1.10;;;;;;;21.61;44.43;99916.81;5051979;28;20024;-78
2022/06/22 08:56:02;;;;;;;2.75;1.10;;;;;;;21.67;45.00;99904.09;5051867;28;20037;-78
2022/06/22 08:59:14;;;;;;;4.60;1.30;;;;;;;21.80;43.28;99901.53;5051892;28;20041;-78
2022/06/22 09:02:06;;;;;;;3.28;1.40;;;;;;;21.98;43.16;99890.97;5056284;28;20029;-78
2022/06/22 09:04:41;;;;;;;4.80;1.30;;;;;;;22.26;42.91;99898.13;5038523;28;20032;-80
2022/06/22 09:07:43;;;;;;;3.55;1.40;;;;;;;21.82;44.08;99901.88;5056233;28;20493;-78
2022/06/22 09:10:32;;;;;;;2.92;1.30;;;;;;;22.17;43.11;99904.22;5056131;28;20092;-78
2022/06/22 09:13:06;;;;;;;3.50;1.30;;;;;;;22.41;42.98;99902.28;5056028;28;20025;-78
2022/06/22 09:15:58;;;;;;;4.82;1.65;;;;;;;22.32;43.07;99904.78;5056144;28;20104;-79
2022/06/22 09:18:52;;;;;;;3.60;1.20;;;;;;;22.44;42.38;99912.53;5056027;28;20475;-79
2022/06/22 09:21:39;;;;;;;2.75;1.05;;;;;;;22.17;42.79;99911.72;5056084;28;20446;-78
2022/06/22 09:24:39;;;;;;;6.07;1.50;;;;;;;22.54;41.93;99916.34;5056054;28;20128;-78
2022/06/22 09:27:19;;;;;;;4.45;1.35;;;;;;;22.73;41.45;99914.84;5055762;28;20025;-78
2022/06/22 09:29:57;;;;;;;2.40;1.02;;;;;;;22.49;42.26;99923.13;5056048;28;20086;-80
2022/06/22 09:33:01;;;;;;;5.38;1.20;;;;;;;22.81;41.77;99919.84;5056300;28;20044;-79
2022/06/22 09:35:47;;;;;;;5.72;2.00;;;;;;;22.49;42.10;99922.34;5055877;28;20033;-78
2022/06/22 09:38:15;;;;;;;3.63;1.20;;;;;;;22.75;41.32;99918.75;5055417;28;20120;-79
2022/06/22 09:41:02;;;;;;;3.30;1.20;;;;;;;22.80;41.25;99928.59;5037458;28;20033;-79
2022/06/22 09:43:42;;;;;;;4.95;1.60;;;;;;;23.01;40.60;99927.47;5055943;28;20033;-79
2022/06/22 09:46:24;;;;;;;4.30;1.50;;;;;;;22.94;40.79;99925.59;5056231;28;20537;-78
2022/06/22 09:49:21;;;;;;;3.50;1.17;;;;;;;23.11;40.76;99923.72;5056357;28;20043;-79
2022/06/22 09:52:26;;;;;;;4.40;1.85;;;;;;;23.15;40.64;99918.09;5055239;28;20028;-79
2022/06/22 09:58:02;;;;;;;2.90;1.30;;;;;;;23.26;40.16;99915.91;5055134;28;20039;-78
2022/06/22 10:00:45;;;;;;;5.00;1.02;;;;;;;23.35;39.06;99911.38;5054615;28;20036;-79
2022/06/22 10:03:39;;;;;;;2.03;0.93;;;;;;;23.05;39.28;99912.31;5054606;28;20025;-77
2022/06/22 10:06:21;;;;;;;3.53;1.38;;;;;;;23.00;40.59;99903.69;5052256;28;20041;-76
2022/06/22 10:08:53;;;;;;;3.15;1.40;;;;;;;23.37;40.44;99892.28;5054921;28;20025;-78
2022/06/22 10:11:46;;;;;;;5.00;1.50;;;;;;;23.65;39.50;99896.50;5054335;28;20058;-78
2022/06/22 10:14:53;;;;;;;3.85;1.30;;;;;;;23.50;39.67;99897.19;5036898;28;20032;-78
2022/06/22 10:17:42;;;;;;;3.10;1.50;;;;;;;23.63;39.88;99887.81;5036665;28;20324;-81
2022/06/22 10:20:22;;;;;;;3.92;1.30;;;;;;;23.23;40.66;99887.00;5054759;28;20024;-78
2022/06/22 10:23:12;;;;;;;3.22;1.42;;;;;;;23.36;40.37;99884.38;5054788;28;20496;-78
2022/06/22 10:25:49;;;;;;;2.85;1.20;;;;;;;23.70;39.80;99875.78;5055386;28;20075;-79
2022/06/22 10:28:46;;;;;;;5.18;1.30;;;;;;;24.08;38.65;99876.13;5055899;28;20017;-79
2022/06/22 10:31:49;;;;;;;3.85;1.35;;;;;;;24.16;38.74;99866.38;5056286;28;20017;-80
2022/06/22 10:34:38;;;;;;;3.00;1.40;;;;;;;24.29;38.19;99867.28;5038219;28;20036;-79
2022/06/22 10:37:18;;;;;;;5.97;1.67;;;;;;;24.07;38.50;99863.41;5055906;28;20082;-80
2022/06/22 10:39:55;;;;;;;3.42;1.30;;;;;;;24.17;38.43;99862.38;5055282;28;20028;-79
2022/06/22 10:45:39;;;;;;;3.30;1.60;;;;;;;24.34;38.38;99859.63;5054963;28;20130;-79
2022/06/22 10:48:07;;;;;;;3.40;1.20;;;;;;;24.34;38.09;99852.06;5055138;28;20410;-79
2022/06/22 10:50:51;;;;;;;3.20;1.25;;;;;;;24.32;37.44;99850.94;5055122;28;20046;-78
2022/06/22 10:53:20;;;;;;;3.60;1.40;;;;;;;24.16;37.66;99846.13;5055112;28;20384;-77
2022/06/22 10:56:00;;;;;;;5.80;1.30;;;;;;;24.36;37.33;99846.88;5055015;28;20049;-77
2022/06/22 10:58:28;;;;;;;3.97;1.23;;;;;;;23.92;37.63;99859.41;5053863;28;20033;-78
2022/06/22 11:00:54;;;;;;;3.28;1.42;;;;;;;23.98;38.15;99850.09;5054037;28;20090;-80
2022/06/22 11:03:41;;;;;;;2.55;1.17;;;;;;;24.45;36.84;99849.03;5053721;28;20384;-79
2022/06/22 11:06:19;;;;;;;2.88;1.20;;;;;;;24.59;35.65;99843.13;5053926;28;20053;-79
2022/06/22 11:08:56;;;;;;;1.75;0.85;;;;;;;24.69;34.74;99849.59;5054183;28;20017;-79
2022/06/22 11:12:09;;;;;;;2.72;0.93;;;;;;;24.64;34.42;99850.94;5053761;28;20024;-79
2022/06/22 11:14:34;;;;;;;3.20;1.05;;;;;;;24.46;36.16;99856.16;4972636;28;20095;-79
2022/06/22 11:17:16;;;;;;;2.60;1.20;;;;;;;24.55;36.53;99848.00;5036110;28;20387;-79
2022/06/22 11:19:56;;;;;;;3.38;1.40;;;;;;;25.15;35.51;99851.19;5053577;28;20593;-80
2022/06/22 11:22:35;;;;;;;3.22;1.27;;;;;;;25.19;34.87;99851.88;5053538;28;20484;-81
2022/06/22 11:31:47;;;;;;;2.50;0.90;;;;;;;25.05;35.45;99860.63;5053390;28;20040;-80
2022/06/22 11:34:33;;;;;;;2.72;1.23;;;;;;;25.04;35.54;99859.88;5053838;28;20471;-79
2022/06/22 11:37:32;;;;;;;3.03;1.00;;;;;;;24.84;33.79;99857.16;5054018;28;20020;-79
2022/06/22 11:40:22;;;;;;;3.40;0.98;;;;;;;24.71;34.03;99856.34;5050128;28;20075;-80
2022/06/22 11:43:42;;;;;;;2.65;0.90;;;;;;;24.95;34.95;99856.09;5053429;28;20024;-79
2022/06/22 11:46:25;;;;;;;2.90;1.17;;;;;;;25.02;35.11;99864.28;4972101;28;20058;-78
2022/06/22 11:49:17;;;;;;;2.35;0.98;;;;;;;25.44;34.17;99856.75;5045949;28;20060;-79
2022/06/22 11:51:51;;;;;;;5.47;1.17;;;;;;;25.50;33.74;99860.53;5053017;28;20499;-79
2022/06/22 11:54:42;;;;;;;2.40;0.95;;;;;;;25.65;33.87;99861.69;5052964;28;20102;-79
2022/06/22 11:57:33;;;;;;;3.28;0.95;;;;;;;26.01;32.97;99858.63;5053883;28;20033;-79
2022/06/22 12:00:29;;;;;;;2.25;0.90;;;;;;;25.91;32.27;99868.13;5022748;28;20041;-79
2022/06/22 12:03:06;;;;;;;2.70;0.80;;;;;;;25.77;31.14;99863.75;5053305;28;20486;-79
2022/06/22 12:05:47;;;;;;;3.38;0.82;;;;;;;26.05;31.18;99862.09;5053290;28;20464;-79
2022/06/22 12:08:39;;;;;;;2.30;1.08;;;;;;;26.08;32.83;99858.41;5053682;28;20021;-79
2022/06/22 12:11:19;;;;;;;4.78;1.27;;;;;;;25.96;32.43;99866.78;5052946;28;20024;-79
2022/06/22 12:16:52;;;;;;;1.40;0.70;;;;;;;25.92;32.71;99860.53;5053014;28;20032;-78
2022/06/22 12:19:39;;;;;;;2.90;0.88;;;;;;;26.01;32.34;99853.06;5052648;28;20021;-78
2022/06/22 12:22:28;;;;;;;1.88;0.80;;;;;;;25.95;31.94;99863.22;5052513;28;20460;-79
2022/06/22 12:25:17;;;;;;;2.78;1.00;;;;;;;25.91;30.90;99856.97;5052387;28;20032;-77
2022/06/22 12:27:47;;;;;;;3.95;1.40;;;;;;;26.11;32.05;99856.75;5052238;28;20020;-78
2022/06/22 12:30:22;;;;;;;3.53;0.80;;;;;;;26.18;31.96;99856.50;5052118;28;20103;-78
2022/06/22 12:32:59;;;;;;;2.13;0.80;;;;;;;26.47;31.42;99866.78;5052352;28;20028;-78
2022/06/22 12:35:24;;;;;;;2.67;0.90;;;;;;;26.70;31.39;99858.00;5033915;28;20115;-80
2022/06/22 12:38:00;;;;;;;3.93;0.70;;;;;;;27.49;30.57;99851.22;5052201;28;20112;-81
2022/06/22 12:41:01;;;;;;;2.50;1.00;;;;;;;28.27;29.03;99844.63;5052306;28;20758;-78
2022/06/22 12:44:00;;;;;;;2.45;0.90;;;;;;;28.02;29.02;99851.19;5037743;28;20033;-79
2022/06/22 12:46:44;;;;;;;3.90;0.90;;;;;;;27.94;28.79;99841.53;5052042;28;20501;-79
2022/06/22 12:49:21;;;;;;;2.88;1.52;;;;;;;27.71;29.48;99834.41;5052181;28;20053;-78